Hovedside
METAR-TAF:

METAR-TAF

Lufthavner :

Yap, Mikronesia

breddegrad: 09-29N, lengdegrad: 138-05E, høyde over havet: 28 m

Gjeldene værobservasjon

Denne rapporten ble laget for 41 minutter siden, klokken 00:50 UTC
Vind 9 kt fra Nordøst
Temperatur 31°C
Luftfuktighet 63%
Trykk 1013 hPa
Sikt: 19.3 km
Få skyer i en høyde av 1700 ft
Brutte skyer i en høyde av 30000 ft

METAR: PTYA 230050Z 05009KT 12SM FEW017 BKN300 31/23 A2990 RMK SLP125 T03090233

Tid: 11:31 (01:31 UTC)

Varsel

Denne rapporten ble laget for 1 time og 54 minutter siden, klokken 23:37 UTC
Varsel gyldig fra 23. klokken 00 UTC til 23. klokken 24 UTC
Vind 8 kt fra Nordøst
Sikt: 10 km
Få skyer i en høyde av 1800 ft
Spredte skyer i en høyde av 5000 ft

TAF: PTYA 222337Z 2300/2324 04008KT P6SM FEW018 SCT050

Værobservasjoner og værvarsel for over 4000 flyplasser (METAR- og TAF-rapporter).

Tilgjengelige stasjoner er representert av de røde og gule prikkene på kartet.

Hold musepekeren over prikken for å se navnet på stasjonen.

Klikk så for å se værobservasjoner og -varsler.

For å forandre kartet kan du klikke på den grønne knappen med svart kryss for å zoome inn, på den grønne knappen med strek for å zoome ut, eller på de grønne pilene for å se tilstøtende kart.


METAR-TAF: